首页
METAR-TAF:

METAR-TAF

机场 :

圖爾恰, 罗马尼亚

纬度: 45-11N, 经度: 028-49E, 海拔: 4米

当前天气观测

该预报发布于29分钟前的09:30 UTC
风速4节,风向北转东北
温度 3°C
湿度 75%
气压 1032 hPa
能见度10公里或以上

METAR: LRTC 180930Z AUTO 03004KT 9999 OVC022/// 03/M01 Q1032

时间: 11:59 (09:59 UTC)

预报

该预报发布于22小时和59分钟前的11:00 UTC
预报有效从17日的 12点(UTC)到 17日的 21点(UTC)
风速12节,风向北转西北
能見度: 7000
阴天层高于1000英尺
成为
从 17日的 14点(UTC)到 17日的 16点(UTC)
能見度: 4000
轻雾
几率 30% :
短暂存在
从 17日的 16点(UTC)到 17日的 21点(UTC)
能見度: 1500
阴天层高于500英尺
轻雾

TAF: LRTC 171100Z 1712/1721 34012KT 7000 OVC010 BECMG 1714/1716 4000 BR PROB30 TEMPO 1716/1721 1500 BR OVC005

超过4000个机场的气象观测和天气预报(METAR&TAF报告)。

可查询的气象台以黄色和红色小点在地图上表示。

将鼠标移到小点上方,可查看气象台名称。

然后点击查看天气观测和预报。

如需切换地图:点击带黑十字的绿色按钮放大地图;点击带横线的绿色按钮缩小地图;或者点击绿色箭头查看邻近地区的地图。


METAR-TAF: